To NAV CANADA Home Page Login to a new session Search on AWWS site Feedback and Comments Disclaimer Vers la page française équivalente Tips FAQ What's new on the site To the Forecasts and Observations / NOTAM section To "File a Flight Plan" website Publications and other links Update of the User's profile FIC Telephone Numbers My Weather Data Folder Route Weather Data Regional Weather Data Local Weather Data To the Forecasts and Observations / NOTAM section
Request Generated 07/25/2017 at 22:29:37 UTC . Weather information available at that time is displayed.


Save this request

METAR/TAF

WINNIPEG/JAMES ARMSTRONG RICHARDSON INTL/MB    

METAR CYWG 252200Z 28011G21KT 15SM BKN045 24/16 A2984 RMK CU5 SLP106
DENSITY ALT 2200FT=
METAR CYWG 252100Z 28016KT 15SM BKN055 23/15 A2983 RMK CU7 SLP105
DENSITY ALT 2000FT=
METAR CYWG 252000Z 27017KT 15SM BKN042 24/15 A2982 RMK CU6 SLP100
DENSITY ALT 2100FT=

TAF CYWG 251738Z 2518/2618 26018G28KT P6SM FEW160 SCT250
FM252000 27018G28KT P6SM SCT040 TEMPO 2520/2606 BKN040
BECMG 2601/2603 28012KT
FM260600 29010KT P6SM SCT030
RMK NXT FCST BY 260000Z=

PORTAGE LA PRAIRIE/SOUTHPORT/MB    

METAR CYPG 252200Z CCA 26020G27KT 15SM SCT055 24/14 A2986 RMK SC3 DA2446FT CU ASOCTD LAST OBS/NEXT 261100 UTC SLP110=
METAR CYPG 252200Z 26020G27KT 15SM SCT055 24/14 A2986 RMK SC3 DA2446FT CU ASOCTD SLP110=
METAR CYPG 252100Z 27017G26KT 15SM SCT049 24/14 A2985 RMK CU3 DA2422FT SLP108=
METAR CYPG 252000Z 28017G23KT 15SM BKN046 24/14 A2984 RMK CU5 DA2404FT SLP104=

TAF AMD CYPG 252216Z 2518/2606 FCST CNCLD DUE END OF FLYING PROGRAM
RMK NXT FCST WILL BE ISSUED AT 261215Z=

BRANDON MUNICIPALITY/MB    

METAR CYBR 252200Z 29017G26KT 15SM SCT040 SCT120 23/15 A2990 RMK
SC3AC1 SLP133 DENSITY ALT 2600FT=
METAR CYBR 252100Z 29018G24KT 15SM BKN040 22/14 A2990 RMK SC7 SLP132
DENSITY ALT 2500FT=
METAR CYBR 252000Z 29016G26KT 15SM BKN044 21/14 A2989 RMK SC7 SLP129
DENSITY ALT 2400FT=

TAF CYBR 251738Z 2518/2606 28020G30KT P6SM BKN030 TEMPO 2518/2606
SCT040
BECMG 2601/2603 30012KT
RMK NXT FCST BY 260000Z=

KENORA/ON    

METAR CYQK 252200Z 25011G17KT 230V290 15SM FEW026TCU FEW120 SCT260
24/18 A2981 RMK TCU2AC1CI1 AC TR SLP094 DENSITY ALT 2900FT=
METAR CYQK 252100Z 21008G17KT 15SM SCT016 BKN120 OVC250 25/21 A2982
RMK SC3AC3CI2 SLP096 DENSITY ALT 3000FT=
METAR CYQK 252000Z 21013G22KT 15SM BKN013 OVC120 22/20 A2983 RMK
SC7AC1 SLP103 DENSITY ALT 2700FT=

TAF CYQK 251938Z 2520/2608 19012G22KT P6SM SCT015 BKN120 TEMPO
2520/2521 BKN015 OVC120
FM252100 20012G22KT P6SM BKN030 PROB30 2521/2522 VRB15G25KT 1SM
+TSRA BR BKN009 OVC020CB
FM260000 27012KT P6SM SCT050 TEMPO 2600/2603 BKN050
FM260300 28012KT P6SM BKN030
RMK NXT FCST BY 260200Z=

DRYDEN REGIONAL/ON    (show WxCam)

METAR CYHD 252200Z AUTO 22014G24KT 9SM OVC025 24/19 A2980 RMK SLP093
DENSITY ALT 2800FT=
METAR CYHD 252100Z AUTO 20014G26KT 9SM BKN029 25/19 A2980 RMK PRESRR
SLP095 DENSITY ALT 2900FT=
SPECI CYHD 252014Z AUTO 18022G27KT 9SM FEW027 BKN230 26/19 A2979 RMK
PRESFR SLP089 DENSITY ALT 3000FT=
METAR CYHD 252000Z AUTO 20012G23KT 9SM FEW160 SCT190 BKN230 25/19
A2981 RMK SLP098 DENSITY ALT 2900FT=

TAF CYHD 251938Z 2520/2608 20012KT P6SM BKN030 TEMPO 2520/2601 P6SM
-SHRA BKN030 OVC050 PROB30 2520/2523 VRB15G25KT 1SM +TSRA BR
BKN009 OVC020CB
FM260100 27010KT P6SM SCT040
FM260600 28008KT P6SM BKN040
RMK FCST BASED ON AUTO OBS. NXT FCST BY 260200Z=

THUNDER BAY/ON    (show WxCam)

METAR CYQT 252200Z 20008KT 20SM FEW160 BKN220 22/15 A2996 RMK AC2CI5
SLP149 DENSITY ALT 1600FT=
METAR CYQT 252100Z 20007G19KT 20SM FEW030 OVC250 23/15 A2997 RMK
CU1CI7 SLP153 DENSITY ALT 1700FT=
METAR CYQT 252000Z 19013G22KT 20SM FEW030 SCT160 BKN250 24/16 A2999
RMK SC2AC2CI2 SLP161 DENSITY ALT 1800FT=

TAF CYQT 251938Z 2520/2608 18010G20KT P6SM FEW030 BKN060
FM260000 19012KT P6SM OVC040
FM260300 20012KT P6SM OVC025 TEMPO 2603/2606 P6SM -SHRA BKN015
OVC025
RMK NXT FCST BY 260200Z=


Your time UTC time
Weather data provided by Environment Canada and NAV CANADA